首页
METAR-TAF:

METAR-TAF

机场 :

波城, 法国

纬度: 43-23N, 经度: 000-25W, 海拔: 188米

当前天气观测

该预报发布于27分钟前的15:00 UTC
风速9节,风向东转东北,在北转东北之间变化
温度 30°C
湿度 33%
气压 1014 hPa
能见度10公里或以上
1500米以下无云,无积雨云

METAR: LFBP 171500Z AUTO 06009KT 030V090 CAVOK 30/12 Q1014 TEMPO FEW080TCU

时间: 17:27 (15:27 UTC)

预报

该预报发布于4小时和27分钟前的11:00 UTC
预报有效从17日的 12点(UTC)到 18日的 12点(UTC)
风速8节,风向东北
能见度10公里或以上
1500米以下无云,无积雨云
几率 30% :
短暂存在
从 17日的 13点(UTC)到 17日的 18点(UTC)
少量云层高于8000英尺, 塔状积云.
成为
从 18日的 01点(UTC)到 18日的 03点(UTC)
风速10节,风向西
几率 30%
从 18日的 03点(UTC)到 18日的 06点(UTC)
多云层高于1200英尺
阴天层高于14000英尺
成为
从 18日的 06点(UTC)到 18日的 08点(UTC)
风速5节,风向东转东南
能见度10公里或以上
1500米以下无云,无积雨云

TAF: LFBP 171100Z 1712/1812 05008KT CAVOK PROB30 TEMPO 1713/1718 FEW080TCU BECMG 1801/1803 27010KT PROB30 1803/1806 BKN012 OVC140 BECMG 1806/1808 11005KT CAVOK

超过4000个机场的气象观测和天气预报(METAR&TAF报告)。

可查询的气象台以黄色和红色小点在地图上表示。

将鼠标移到小点上方,可查看气象台名称。

然后点击查看天气观测和预报。

如需切换地图:点击带黑十字的绿色按钮放大地图;点击带横线的绿色按钮缩小地图;或者点击绿色箭头查看邻近地区的地图。


METAR-TAF: